Time;durP1;ratioP1;P1;durP2;ratioP2;P2;SDS_P1;SDS_P2;PMS_P1;PMS_P2;Temp;Humidity;BMP_temperature;BMP_pressure;BME280_temperature;BME280_humidity;BME280_pressure;Samples;Min_cycle;Max_cycle;Signal;HPM_P1;HPM_P2
2023/04/13 00:00:12;;;;;;;3.08;1.40;;;;;;;;;;4959340;28;20051;-71
2023/04/13 00:02:38;;;;;;;2.05;0.60;;;;;;;;;;4967317;28;20035;-70
2023/04/13 00:05:06;;;;;;;3.25;0.98;;;;;;;;;;4963492;28;20122;-70
2023/04/13 00:07:33;;;;;;;3.90;0.80;;;;;;;;;;4946729;28;20091;-72
2023/04/13 00:10:02;;;;;;;2.50;0.73;;;;;;;;;;4945279;28;20050;-72
2023/04/13 00:12:28;;;;;;;4.72;0.70;;;;;;;;;;4942689;29;20488;-72
2023/04/13 00:14:55;;;;;;;4.60;0.88;;;;;;;;;;4934403;28;20134;-71
2023/04/13 00:17:23;;;;;;;2.00;0.88;;;;;;;;;;4940626;28;20109;-73
2023/04/13 00:19:52;;;;;;;2.65;1.17;;;;;;;;;;4906551;28;20083;-71
2023/04/13 00:22:19;;;;;;;1.63;0.70;;;;;;;;;;4938879;28;20073;-72
2023/04/13 00:24:46;;;;;;;2.88;0.80;;;;;;;;;;4927325;29;20044;-70
2023/04/13 00:27:13;;;;;;;2.28;1.02;;;;;;;;;;4960461;29;20036;-72
2023/04/13 00:29:39;;;;;;;4.38;0.80;;;;;;;;;;4958213;28;20303;-73
2023/04/13 00:32:06;;;;;;;2.53;0.98;;;;;;;;;;4938327;28;20066;-73
2023/04/13 00:34:32;;;;;;;3.70;0.82;;;;;;;;;;4945120;28;20049;-72
2023/04/13 00:37:01;;;;;;;1.50;0.70;;;;;;;;;;4944455;28;20091;-73
2023/04/13 00:39:29;;;;;;;1.67;0.60;;;;;;;;;;4948393;28;20412;-72
2023/04/13 00:42:00;;;;;;;3.22;0.93;;;;;;;;;;4946311;28;20090;-72
2023/04/13 00:44:27;;;;;;;1.38;0.52;;;;;;;;;;4945394;28;20065;-72
2023/04/13 00:46:53;;;;;;;1.88;1.02;;;;;;;;;;4941489;28;20453;-73
2023/04/13 00:49:23;;;;;;;1.98;0.65;;;;;;;;;;4938511;28;20139;-71
2023/04/13 00:51:49;;;;;;;1.17;0.65;;;;;;;;;;4941930;29;20716;-73
2023/04/13 00:54:17;;;;;;;3.30;1.08;;;;;;;;;;4943978;29;20177;-73
2023/04/13 00:56:43;;;;;;;2.67;0.60;;;;;;;;;;4942519;28;20055;-72
2023/04/13 00:59:10;;;;;;;0.85;0.60;;;;;;;;;;4931775;28;20119;-72
2023/04/13 01:01:49;;;;;;;2.92;1.10;;;;;;;;;;4944003;28;20063;-73
2023/04/13 01:04:19;;;;;;;2.85;1.02;;;;;;;;;;4944442;28;20150;-73
2023/04/13 01:07:07;;;;;;;2.67;0.80;;;;;;;;;;4937106;28;20054;-72
2023/04/13 01:09:37;;;;;;;1.50;0.65;;;;;;;;;;4943989;28;20084;-72
2023/04/13 01:12:16;;;;;;;3.58;0.90;;;;;;;;;;4944860;28;20058;-73
2023/04/13 01:14:46;;;;;;;2.70;1.00;;;;;;;;;;4942277;28;20052;-71
2023/04/13 01:17:16;;;;;;;3.45;0.82;;;;;;;;;;4944491;28;20150;-72
2023/04/13 01:19:58;;;;;;;2.20;0.95;;;;;;;;;;4945562;28;20142;-74
2023/04/13 01:22:27;;;;;;;3.38;1.00;;;;;;;;;;4928504;29;20492;-75
2023/04/13 01:25:05;;;;;;;3.97;0.85;;;;;;;;;;4939067;28;20468;-74
2023/04/13 01:27:41;;;;;;;4.65;1.10;;;;;;;;;;4936333;29;20066;-74
2023/04/13 01:30:12;;;;;;;2.38;0.90;;;;;;;;;;4944295;28;20055;-74
2023/04/13 01:32:40;;;;;;;3.88;0.98;;;;;;;;;;4945951;28;20047;-74
2023/04/13 01:35:09;;;;;;;4.68;1.10;;;;;;;;;;4950701;28;20070;-74
2023/04/13 01:37:37;;;;;;;5.10;0.90;;;;;;;;;;4951135;28;20070;-72
2023/04/13 01:40:12;;;;;;;2.58;1.10;;;;;;;;;;4946394;28;20428;-75
2023/04/13 01:42:39;;;;;;;2.17;0.90;;;;;;;;;;4932824;28;20058;-74
2023/04/13 01:45:09;;;;;;;3.92;1.10;;;;;;;;;;4950931;28;20055;-74
2023/04/13 01:47:37;;;;;;;2.97;1.17;;;;;;;;;;4933387;29;20052;-73
2023/04/13 01:50:07;;;;;;;5.53;1.10;;;;;;;;;;4935538;28;20047;-73
2023/04/13 01:52:35;;;;;;;3.10;1.00;;;;;;;;;;4938814;29;20051;-74
2023/04/13 01:55:02;;;;;;;3.28;1.10;;;;;;;;;;4921296;28;20126;-75
2023/04/13 01:57:30;;;;;;;2.95;1.00;;;;;;;;;;4949721;28;20121;-75
2023/04/13 01:59:57;;;;;;;4.97;1.20;;;;;;;;;;4949848;28;20193;-75
2023/04/13 02:02:23;;;;;;;3.78;0.95;;;;;;;;;;4933081;28;20058;-73
2023/04/13 02:04:50;;;;;;;3.78;0.98;;;;;;;;;;4950722;28;20055;-75
2023/04/13 02:07:17;;;;;;;2.15;1.00;;;;;;;;;;4946451;28;20051;-73
2023/04/13 02:09:44;;;;;;;3.33;0.88;;;;;;;;;;4950373;28;20062;-75
2023/04/13 02:12:11;;;;;;;5.18;1.00;;;;;;;;;;4940800;28;20062;-75
2023/04/13 02:14:38;;;;;;;3.10;0.80;;;;;;;;;;4946600;28;20047;-75
2023/04/13 02:17:04;;;;;;;4.88;1.48;;;;;;;;;;4952318;28;20062;-73
2023/04/13 02:19:30;;;;;;;3.40;0.90;;;;;;;;;;4929259;28;20082;-74
2023/04/13 02:21:57;;;;;;;4.80;1.10;;;;;;;;;;4955323;28;20078;-74
2023/04/13 02:24:23;;;;;;;6.63;1.17;;;;;;;;;;4948847;28;20054;-67
2023/04/13 02:26:49;;;;;;;3.85;1.00;;;;;;;;;;4939632;28;20043;-68
2023/04/13 02:29:16;;;;;;;4.25;1.10;;;;;;;;;;4940864;29;20059;-69
2023/04/13 02:31:43;;;;;;;6.22;1.45;;;;;;;;;;4944209;28;20543;-67
2023/04/13 02:34:10;;;;;;;2.70;0.68;;;;;;;;;;4949720;28;20126;-68
2023/04/13 02:36:37;;;;;;;2.58;0.73;;;;;;;;;;4946583;28;20162;-68
2023/04/13 02:39:03;;;;;;;4.60;0.80;;;;;;;;;;4937602;28;20047;-67
2023/04/13 02:41:29;;;;;;;3.42;0.80;;;;;;;;;;4954135;28;20050;-67
2023/04/13 02:43:56;;;;;;;3.30;0.70;;;;;;;;;;4918509;29;20628;-67
2023/04/13 02:46:23;;;;;;;2.38;0.90;;;;;;;;;;4945148;28;20101;-67
2023/04/13 02:48:49;;;;;;;4.32;0.90;;;;;;;;;;4944538;28;20054;-68
2023/04/13 02:51:16;;;;;;;4.35;0.98;;;;;;;;;;4938128;28;20051;-68
2023/04/13 02:53:42;;;;;;;2.00;0.68;;;;;;;;;;4942890;29;20444;-68
2023/04/13 02:56:08;;;;;;;5.55;1.10;;;;;;;;;;4936269;28;20039;-67
2023/04/13 02:58:35;;;;;;;4.30;1.00;;;;;;;;;;4928908;29;20058;-68
2023/04/13 03:01:01;;;;;;;3.17;1.00;;;;;;;;;;4941832;28;20055;-67
2023/04/13 03:03:29;;;;;;;3.22;0.65;;;;;;;;;;4939143;29;20053;-68
2023/04/13 03:05:56;;;;;;;3.85;1.00;;;;;;;;;;4922735;29;20054;-68
2023/04/13 03:08:22;;;;;;;1.48;0.63;;;;;;;;;;4929494;28;20051;-68
2023/04/13 03:10:50;;;;;;;2.33;1.05;;;;;;;;;;4922062;29;20473;-68
2023/04/13 03:13:16;;;;;;;3.40;1.17;;;;;;;;;;4926323;28;20048;-69
2023/04/13 03:15:43;;;;;;;3.28;0.88;;;;;;;;;;4935618;28;20167;-68
2023/04/13 03:18:09;;;;;;;4.60;1.02;;;;;;;;;;4943301;28;20097;-67
2023/04/13 03:20:36;;;;;;;2.88;1.13;;;;;;;;;;4944892;28;20055;-70
2023/04/13 03:23:03;;;;;;;2.15;0.88;;;;;;;;;;4928753;29;20047;-68
2023/04/13 03:25:29;;;;;;;2.42;0.90;;;;;;;;;;4930452;28;20051;-69
2023/04/13 03:27:59;;;;;;;4.57;1.35;;;;;;;;;;4948374;28;20434;-67
2023/04/13 03:30:25;;;;;;;3.50;1.27;;;;;;;;;;4937560;28;20312;-68
2023/04/13 03:32:51;;;;;;;4.18;1.08;;;;;;;;;;4944522;28;20110;-68
2023/04/13 03:35:18;;;;;;;2.67;1.10;;;;;;;;;;4946004;28;20413;-67
2023/04/13 03:37:44;;;;;;;4.05;1.20;;;;;;;;;;4943190;28;20496;-68
2023/04/13 03:40:11;;;;;;;2.95;1.10;;;;;;;;;;4928838;29;20055;-67
2023/04/13 03:42:37;;;;;;;4.35;1.13;;;;;;;;;;4944482;28;20594;-67
2023/04/13 03:45:04;;;;;;;6.47;1.65;;;;;;;;;;4945672;29;20611;-67
2023/04/13 03:47:31;;;;;;;1.67;1.10;;;;;;;;;;4944550;28;20102;-67
2023/04/13 03:49:57;;;;;;;2.25;1.30;;;;;;;;;;4944282;28;20050;-67
2023/04/13 03:52:24;;;;;;;3.60;1.20;;;;;;;;;;4943322;28;20341;-66
2023/04/13 03:54:50;;;;;;;4.63;1.42;;;;;;;;;;4935858;28;20500;-68
2023/04/13 03:57:17;;;;;;;1.13;1.02;;;;;;;;;;4941152;28;20059;-69
2023/04/13 03:59:44;;;;;;;5.07;1.98;;;;;;;;;;4944366;28;20058;-68
2023/04/13 04:02:10;;;;;;;2.15;1.20;;;;;;;;;;4945471;28;20051;-67
2023/04/13 04:04:37;;;;;;;2.90;1.17;;;;;;;;;;4944402;29;20059;-67
2023/04/13 04:07:04;;;;;;;3.08;1.23;;;;;;;;;;4943193;28;20055;-68
2023/04/13 04:09:30;;;;;;;4.00;1.10;;;;;;;;;;4945737;29;20062;-67
2023/04/13 04:11:57;;;;;;;5.95;1.20;;;;;;;;;;4943593;28;20051;-67
2023/04/13 04:14:23;;;;;;;3.60;1.30;;;;;;;;;;4943842;28;20051;-67
2023/04/13 04:16:50;;;;;;;4.10;1.70;;;;;;;;;;4942920;28;20111;-68
2023/04/13 04:19:16;;;;;;;3.70;1.40;;;;;;;;;;4943932;28;20059;-67
2023/04/13 04:21:43;;;;;;;3.97;1.20;;;;;;;;;;4942974;28;20114;-67
2023/04/13 04:24:11;;;;;;;2.45;1.20;;;;;;;;;;4943119;28;20059;-68
2023/04/13 04:26:39;;;;;;;5.95;1.30;;;;;;;;;;4943636;28;20063;-67
2023/04/13 04:29:07;;;;;;;4.93;1.10;;;;;;;;;;4941654;28;20062;-67
2023/04/13 04:31:35;;;;;;;;;;;;;;;;;;4942278;28;20047;-68
2023/04/13 04:34:02;;;;;;;;;;;;;;;;;;4941128;29;19928;-67
2023/04/13 04:36:29;;;;;;;6.28;1.92;;;;;;;;;;4941931;28;19937;-67
2023/04/13 04:38:57;;;;;;;3.85;1.00;;;;;;;;;;4940295;29;20855;-67
2023/04/13 04:41:24;;;;;;;4.00;1.30;;;;;;;;;;4942324;28;20404;-67
2023/04/13 04:43:50;;;;;;;4.38;1.48;;;;;;;;;;4943131;29;20119;-67
2023/04/13 04:46:17;;;;;;;2.92;1.35;;;;;;;;;;4936762;28;20866;-67
2023/04/13 04:48:46;;;;;;;4.30;2.05;;;;;;;;;;4926540;29;20537;-67
2023/04/13 04:51:12;;;;;;;;;;;;;;;;;;4921899;28;20053;-68
2023/04/13 04:53:39;;;;;;;5.10;2.38;;;;;;;;;;4924460;29;20001;-68
2023/04/13 04:56:05;;;;;;;4.88;2.38;;;;;;;;;;4920724;28;20047;-69
2023/04/13 04:58:32;;;;;;;4.90;2.58;;;;;;;;;;4945528;28;20385;-68
2023/04/13 05:00:58;;;;;;;7.85;2.72;;;;;;;;;;4931209;28;20265;-68
2023/04/13 05:03:25;;;;;;;9.65;3.88;;;;;;;;;;4940863;29;20141;-69
2023/04/13 05:05:51;;;;;;;9.88;3.47;;;;;;;;;;4941517;29;20062;-68
2023/04/13 05:08:18;;;;;;;6.43;3.35;;;;;;;;;;4941821;28;20039;-67
2023/04/13 05:10:47;;;;;;;6.43;3.22;;;;;;;;;;4940151;29;20075;-68
2023/04/13 05:13:13;;;;;;;6.75;4.10;;;;;;;;;;4934783;28;20162;-68
2023/04/13 05:15:40;;;;;;;11.02;3.80;;;;;;;;;;4941453;28;20051;-68
2023/04/13 05:18:06;;;;;;;9.05;4.05;;;;;;;;;;4933425;28;20055;-68
2023/04/13 05:20:33;;;;;;;11.00;4.25;;;;;;;;;;4938746;28;20066;-67
2023/04/13 05:23:00;;;;;;;8.40;4.10;;;;;;;;;;4926089;28;20122;-67
2023/04/13 05:25:26;;;;;;;10.63;3.92;;;;;;;;;;4944274;29;20093;-68
2023/04/13 05:27:53;;;;;;;8.75;4.13;;;;;;;;;;4925924;29;20044;-68
2023/04/13 05:30:20;;;;;;;10.18;4.07;;;;;;;;;;4944699;28;20051;-67
2023/04/13 05:32:46;;;;;;;10.48;4.45;;;;;;;;;;4943712;28;20646;-68
2023/04/13 05:35:13;;;;;;;10.60;4.75;;;;;;;;;;4935445;29;20052;-68
2023/04/13 05:37:39;;;;;;;14.93;5.78;;;;;;;;;;4939041;28;20059;-67
2023/04/13 05:40:10;;;;;;;6.47;4.22;;;;;;;;;;4944048;29;20070;-69
2023/04/13 05:42:37;;;;;;;11.73;4.35;;;;;;;;;;4941919;28;20055;-68
2023/04/13 05:45:08;;;;;;;10.27;4.82;;;;;;;;;;4943451;28;20051;-69
2023/04/13 05:47:35;;;;;;;10.57;4.78;;;;;;;;;;4941373;28;20463;-68
2023/04/13 05:50:02;;;;;;;8.77;4.55;;;;;;;;;;4943129;28;20050;-68
2023/04/13 05:52:29;;;;;;;9.18;3.70;;;;;;;;;;4946474;28;20053;-67
2023/04/13 05:54:56;;;;;;;13.25;4.18;;;;;;;;;;4942997;29;20245;-67
2023/04/13 05:57:23;;;;;;;12.73;4.38;;;;;;;;;;4940413;28;20055;-67
2023/04/13 05:59:50;;;;;;;10.98;4.30;;;;;;;;;;4916728;29;20043;-67
2023/04/13 06:02:17;;;;;;;7.90;3.97;;;;;;;;;;4939295;28;20082;-67
2023/04/13 06:04:44;;;;;;;12.25;3.88;;;;;;;;;;4937259;28;20052;-67
2023/04/13 06:07:13;;;;;;;12.27;3.95;;;;;;;;;;4942541;28;20412;-67
2023/04/13 06:09:40;;;;;;;9.05;3.80;;;;;;;;;;4937422;29;20051;-68
2023/04/13 06:12:06;;;;;;;10.07;4.25;;;;;;;;;;4940098;28;20051;-68
2023/04/13 06:14:33;;;;;;;8.63;3.50;;;;;;;;;;4925939;28;20043;-67
2023/04/13 06:17:00;;;;;;;11.80;4.70;;;;;;;;;;4940223;28;20711;-67
2023/04/13 06:19:26;;;;;;;8.65;3.75;;;;;;;;;;4943857;28;20355;-67
2023/04/13 06:21:54;;;;;;;9.68;4.20;;;;;;;;;;4943805;28;20057;-68
2023/04/13 06:24:21;;;;;;;9.45;4.13;;;;;;;;;;4943634;29;20109;-68
2023/04/13 06:26:47;;;;;;;9.95;4.32;;;;;;;;;;4926349;28;20126;-67
2023/04/13 06:29:14;;;;;;;7.50;4.85;;;;;;;;;;4947845;28;20528;-69
2023/04/13 06:31:40;;;;;;;8.88;4.43;;;;;;;;;;4920997;28;20047;-69
2023/04/13 06:34:07;;;;;;;9.15;4.75;;;;;;;;;;4943669;28;20146;-68
2023/04/13 06:36:33;;;;;;;14.63;5.30;;;;;;;;;;4943813;28;20115;-68
2023/04/13 06:39:00;;;;;;;13.40;5.03;;;;;;;;;;4939738;28;20051;-67
2023/04/13 06:41:27;;;;;;;10.90;4.70;;;;;;;;;;4946382;28;20110;-69
2023/04/13 06:43:53;;;;;;;6.90;4.07;;;;;;;;;;4940876;28;20195;-67
2023/04/13 06:46:20;;;;;;;11.40;5.63;;;;;;;;;;4945424;28;20393;-67
2023/04/13 06:48:46;;;;;;;11.57;4.30;;;;;;;;;;4938554;28;20102;-69
2023/04/13 06:51:13;;;;;;;7.07;3.90;;;;;;;;;;4926651;28;20487;-67
2023/04/13 06:53:40;;;;;;;8.43;4.03;;;;;;;;;;4941479;28;20057;-67
2023/04/13 06:56:07;;;;;;;8.07;4.00;;;;;;;;;;4943950;28;20051;-67
2023/04/13 06:58:33;;;;;;;8.45;4.40;;;;;;;;;;4945963;28;20051;-67
2023/04/13 07:00:59;;;;;;;6.07;4.13;;;;;;;;;;4945604;28;20460;-67
2023/04/13 07:03:26;;;;;;;6.85;3.53;;;;;;;;;;4941842;28;20414;-69
2023/04/13 07:05:53;;;;;;;8.02;3.33;;;;;;;;;;4945359;28;20047;-70
2023/04/13 07:08:20;;;;;;;2.95;1.73;;;;;;;;;;4940392;29;20052;-67
2023/04/13 07:10:51;;;;;;;4.72;2.30;;;;;;;;;;4945720;28;20142;-68
2023/04/13 07:13:17;;;;;;;4.20;1.90;;;;;;;;;;4940874;28;20413;-70
2023/04/13 07:15:43;;;;;;;5.78;2.10;;;;;;;;;;4942232;28;20079;-69
2023/04/13 07:18:10;;;;;;;7.45;2.63;;;;;;;;;;4929463;29;20134;-70
2023/04/13 07:20:38;;;;;;;6.18;2.85;;;;;;;;;;4945452;28;20526;-68
2023/04/13 07:23:05;;;;;;;6.65;3.15;;;;;;;;;;4942710;28;20059;-68
2023/04/13 07:25:32;;;;;;;8.68;3.75;;;;;;;;;;4946716;28;20468;-68
2023/04/13 07:27:59;;;;;;;8.33;3.53;;;;;;;;;;4928854;28;20058;-68
2023/04/13 07:30:26;;;;;;;8.57;4.13;;;;;;;;;;4943360;28;20932;-69
2023/04/13 07:32:52;;;;;;;6.57;3.63;;;;;;;;;;4942178;28;20098;-66
2023/04/13 07:35:19;;;;;;;7.03;3.30;;;;;;;;;;4940187;28;20060;-69
2023/04/13 07:37:48;;;;;;;7.70;3.50;;;;;;;;;;4944902;29;20043;-70
2023/04/13 07:40:18;;;;;;;7.40;3.13;;;;;;;;;;4944612;28;20578;-69
2023/04/13 07:42:46;;;;;;;8.77;3.33;;;;;;;;;;4944404;28;20082;-69
2023/04/13 07:45:14;;;;;;;6.07;2.97;;;;;;;;;;4939675;29;20126;-69
2023/04/13 07:47:40;;;;;;;11.05;3.38;;;;;;;;;;4936708;28;20106;-68
2023/04/13 07:50:08;;;;;;;9.23;3.10;;;;;;;;;;4946238;28;20054;-70
2023/04/13 07:52:34;;;;;;;10.20;3.83;;;;;;;;;;4946564;28;20628;-69
2023/04/13 07:55:01;;;;;;;11.05;3.65;;;;;;;;;;4942067;28;20560;-69
2023/04/13 07:57:28;;;;;;;6.63;3.15;;;;;;;;;;4927345;29;20055;-69
2023/04/13 07:59:54;;;;;;;8.82;3.30;;;;;;;;;;4941755;28;20699;-70
2023/04/13 08:02:21;;;;;;;9.40;3.55;;;;;;;;;;4933477;28;20464;-68
2023/04/13 08:04:48;;;;;;;10.75;3.17;;;;;;;;;;4912969;29;20408;-68
2023/04/13 08:07:15;;;;;;;9.55;3.47;;;;;;;;;;4937566;29;20047;-70
2023/04/13 08:09:41;;;;;;;8.07;3.35;;;;;;;;;;4944634;28;20076;-68
2023/04/13 08:12:07;;;;;;;8.25;3.28;;;;;;;;;;4945644;28;20078;-66
2023/04/13 08:14:34;;;;;;;13.25;3.75;;;;;;;;;;4945980;28;20568;-68
2023/04/13 08:17:02;;;;;;;8.55;2.92;;;;;;;;;;4944940;28;20043;-68
2023/04/13 08:19:29;;;;;;;;;;;;;;;;;;4944888;29;20086;-68
2023/04/13 08:21:56;;;;;;;6.50;3.25;;;;;;;;;;4943305;28;20446;-67
2023/04/13 08:24:23;;;;;;;8.30;3.42;;;;;;;;;;4939671;28;20062;-69
2023/04/13 08:26:59;;;;;;;7.97;2.75;;;;;;;;;;4941438;28;20138;-68
2023/04/13 08:29:26;;;;;;;7.85;3.35;;;;;;;;;;4940086;29;20047;-68
2023/04/13 08:31:52;;;;;;;9.05;3.00;;;;;;;;;;4943591;29;20411;-68
2023/04/13 08:34:19;;;;;;;15.07;4.18;;;;;;;;;;4934707;29;20057;-67
2023/04/13 08:36:46;;;;;;;9.98;3.10;;;;;;;;;;4946654;29;20802;-68
2023/04/13 08:39:13;;;;;;;11.68;2.83;;;;;;;;;;4944958;28;20521;-68
2023/04/13 08:41:43;;;;;;;11.82;3.10;;;;;;;;;;4940563;28;20479;-65
2023/04/13 08:44:10;;;;;;;7.00;2.42;;;;;;;;;;4942748;28;20059;-67
2023/04/13 08:46:37;;;;;;;9.40;2.67;;;;;;;;;;4928740;29;20114;-67
2023/04/13 08:49:05;;;;;;;9.00;2.53;;;;;;;;;;4946423;28;20043;-68
2023/04/13 08:51:32;;;;;;;10.70;2.60;;;;;;;;;;4946465;28;20082;-67
2023/04/13 08:53:58;;;;;;;10.80;2.30;;;;;;;;;;4946605;28;20437;-69
2023/04/13 08:56:26;;;;;;;9.85;2.25;;;;;;;;;;4945163;29;20043;-68
2023/04/13 08:59:11;;;;;;;7.88;2.15;;;;;;;;;;4946768;29;20518;-67
2023/04/13 09:01:38;;;;;;;11.68;2.47;;;;;;;;;;4936064;29;20134;-69
2023/04/13 09:04:09;;;;;;;9.75;1.90;;;;;;;;;;4930660;29;20047;-69
2023/04/13 09:06:40;;;;;;;12.00;2.00;;;;;;;;;;4938789;29;20055;-68
2023/04/13 09:09:08;;;;;;;13.55;2.08;;;;;;;;;;4944909;28;20047;-66
2023/04/13 09:11:35;;;;;;;14.30;2.08;;;;;;;;;;4942737;29;20062;-67
2023/04/13 09:14:01;;;;;;;12.32;2.20;;;;;;;;;;4934527;29;20117;-68
2023/04/13 09:16:28;;;;;;;12.60;2.10;;;;;;;;;;4933957;28;20062;-70
2023/04/13 09:18:55;;;;;;;9.43;1.85;;;;;;;;;;4940003;29;20277;-66
2023/04/13 09:21:22;;;;;;;14.15;1.83;;;;;;;;;;4945671;28;20404;-68
2023/04/13 09:23:56;;;;;;;7.75;2.33;;;;;;;;;;4938169;29;20154;-65
2023/04/13 09:26:22;;;;;;;8.70;1.77;;;;;;;;;;4934728;28;20047;-67
2023/04/13 09:28:50;;;;;;;14.73;2.20;;;;;;;;;;4945994;28;20544;-67
2023/04/13 09:31:18;;;;;;;5.93;1.55;;;;;;;;;;4929880;28;20090;-70
2023/04/13 09:33:46;;;;;;;9.77;1.98;;;;;;;;;;4931667;28;20138;-68
2023/04/13 09:36:12;;;;;;;9.02;1.52;;;;;;;;;;4940093;29;20043;-68
2023/04/13 09:38:39;;;;;;;11.60;1.90;;;;;;;;;;4945647;29;20050;-67
2023/04/13 09:41:06;;;;;;;9.25;1.85;;;;;;;;;;4942571;28;20043;-68
2023/04/13 09:43:36;;;;;;;10.50;1.67;;;;;;;;;;4937064;29;20142;-68
2023/04/13 09:46:12;;;;;;;10.93;1.85;;;;;;;;;;4929661;29;20165;-69
2023/04/13 09:48:39;;;;;;;12.55;1.70;;;;;;;;;;4945297;29;20563;-69
2023/04/13 09:51:07;;;;;;;5.28;1.52;;;;;;;;;;4946536;29;20047;-71
2023/04/13 09:53:41;;;;;;;9.82;1.65;;;;;;;;;;4946790;28;20534;-70
2023/04/13 09:56:08;;;;;;;11.52;1.80;;;;;;;;;;4946538;29;20043;-69
2023/04/13 09:58:42;;;;;;;12.45;2.33;;;;;;;;;;4948490;29;20687;-67
2023/04/13 10:01:09;;;;;;;15.90;2.08;;;;;;;;;;4938918;28;20040;-67
2023/04/13 10:03:36;;;;;;;7.30;1.83;;;;;;;;;;4947991;28;20055;-67
2023/04/13 10:06:09;;;;;;;11.35;1.95;;;;;;;;;;4938288;28;20219;-67
2023/04/13 10:08:36;;;;;;;7.70;1.75;;;;;;;;;;4947566;28;20139;-65
2023/04/13 10:11:07;;;;;;;8.30;2.25;;;;;;;;;;4937744;28;20055;-67
2023/04/13 10:13:35;;;;;;;9.75;2.15;;;;;;;;;;4943477;28;20156;-68
2023/04/13 10:16:21;;;;;;;8.38;1.48;;;;;;;;;;4939816;28;20058;-66
2023/04/13 10:18:58;;;;;;;12.50;2.30;;;;;;;;;;4929912;28;20054;-66
2023/04/13 10:21:38;;;;;;;9.18;1.50;;;;;;;;;;4947344;28;20051;-66
2023/04/13 10:24:05;;;;;;;7.18;1.52;;;;;;;;;;4945527;28;20111;-66
2023/04/13 10:26:38;;;;;;;9.88;1.92;;;;;;;;;;4942392;29;20292;-66
2023/04/13 10:29:05;;;;;;;12.98;1.48;;;;;;;;;;4932539;29;20616;-66
2023/04/13 10:31:38;;;;;;;10.05;1.70;;;;;;;;;;4937006;28;20082;-66
2023/04/13 10:34:05;;;;;;;15.52;2.72;;;;;;;;;;4936732;28;20663;-67
2023/04/13 10:36:38;;;;;;;12.32;2.22;;;;;;;;;;4943773;29;20048;-66
2023/04/13 10:39:04;;;;;;;12.13;1.80;;;;;;;;;;4934740;29;20110;-66
2023/04/13 10:41:31;;;;;;;14.13;2.13;;;;;;;;;;4942449;28;20093;-67
2023/04/13 10:44:03;;;;;;;12.43;2.00;;;;;;;;;;4931075;28;20063;-65
2023/04/13 10:46:30;;;;;;;10.13;1.70;;;;;;;;;;4929313;28;20560;-65
2023/04/13 10:48:57;;;;;;;7.38;1.05;;;;;;;;;;4943449;28;20138;-66
2023/04/13 10:51:26;;;;;;;7.25;1.65;;;;;;;;;;4946712;29;20110;-66
2023/04/13 10:54:02;;;;;;;17.90;2.17;;;;;;;;;;4928640;29;20039;-66
2023/04/13 10:56:28;;;;;;;11.30;2.10;;;;;;;;;;4925019;29;20146;-68
2023/04/13 10:58:55;;;;;;;11.50;1.55;;;;;;;;;;4940252;29;20400;-68
2023/04/13 11:01:21;;;;;;;11.82;2.25;;;;;;;;;;4940833;29;20072;-67
2023/04/13 11:03:49;;;;;;;8.55;1.70;;;;;;;;;;4943419;28;20126;-66
2023/04/13 11:06:36;;;;;;;11.15;1.90;;;;;;;;;;4945651;28;20061;-67
2023/04/13 11:09:05;;;;;;;12.02;1.77;;;;;;;;;;4944464;28;20055;-67
2023/04/13 11:11:35;;;;;;;11.80;1.80;;;;;;;;;;4946754;29;20051;-66
2023/04/13 11:14:02;;;;;;;9.88;1.35;;;;;;;;;;4938447;28;20064;-66
2023/04/13 11:16:29;;;;;;;10.57;1.65;;;;;;;;;;4937365;28;20058;-68
2023/04/13 11:19:02;;;;;;;11.40;2.00;;;;;;;;;;4948604;28;20079;-68
2023/04/13 11:21:31;;;;;;;11.88;1.67;;;;;;;;;;4942785;28;20577;-67
2023/04/13 11:24:01;;;;;;;11.40;1.63;;;;;;;;;;4945263;29;20071;-66
2023/04/13 11:26:32;;;;;;;9.13;1.85;;;;;;;;;;4948728;28;20051;-67
2023/04/13 11:28:59;;;;;;;11.18;1.88;;;;;;;;;;4948927;29;20526;-67
2023/04/13 11:31:38;;;;;;;7.93;1.48;;;;;;;;;;4948554;29;20039;-67
2023/04/13 11:34:05;;;;;;;9.10;2.10;;;;;;;;;;4948729;28;20047;-66
2023/04/13 11:36:32;;;;;;;5.88;1.40;;;;;;;;;;4943587;28;20048;-66
2023/04/13 11:39:00;;;;;;;9.88;1.70;;;;;;;;;;4948089;28;20466;-67
2023/04/13 11:41:28;;;;;;;8.95;1.70;;;;;;;;;;4949046;28;20055;-67
2023/04/13 11:43:56;;;;;;;8.48;2.08;;;;;;;;;;4947846;29;20051;-67
2023/04/13 11:46:25;;;;;;;10.18;1.52;;;;;;;;;;4931042;29;20047;-66
2023/04/13 11:48:52;;;;;;;7.35;1.40;;;;;;;;;;4945342;28;20047;-68
2023/04/13 11:51:19;;;;;;;11.75;2.15;;;;;;;;;;4944843;28;20109;-67
2023/04/13 11:53:45;;;;;;;8.20;1.77;;;;;;;;;;4933402;28;20043;-66
2023/04/13 11:56:13;;;;;;;9.45;1.50;;;;;;;;;;4942955;28;20047;-67
2023/04/13 11:58:41;;;;;;;6.97;1.20;;;;;;;;;;4943975;28;20131;-68
2023/04/13 12:01:08;;;;;;;7.27;1.43;;;;;;;;;;4940119;29;20701;-67
2023/04/13 12:03:39;;;;;;;9.63;1.27;;;;;;;;;;4940155;28;20366;-67
2023/04/13 12:06:22;;;;;;;8.80;1.67;;;;;;;;;;4939953;28;20475;-66
2023/04/13 12:08:56;;;;;;;8.68;1.85;;;;;;;;;;4936929;29;20047;-66
2023/04/13 12:11:39;;;;;;;9.73;1.52;;;;;;;;;;4944013;28;20063;-66
2023/04/13 12:14:21;;;;;;;7.82;1.10;;;;;;;;;;4947620;29;20063;-67
2023/04/13 12:16:50;;;;;;;9.50;1.67;;;;;;;;;;4940805;28;20058;-68
2023/04/13 12:19:21;;;;;;;8.63;1.48;;;;;;;;;;4942149;29;20704;-70
2023/04/13 12:21:49;;;;;;;7.40;1.88;;;;;;;;;;4946843;28;20047;-68
2023/04/13 12:24:18;;;;;;;7.38;1.42;;;;;;;;;;4947447;29;20070;-68
2023/04/13 12:26:44;;;;;;;12.90;1.65;;;;;;;;;;4928299;29;20059;-67
2023/04/13 12:29:13;;;;;;;9.63;1.65;;;;;;;;;;4947451;28;20062;-69
2023/04/13 12:31:40;;;;;;;7.60;1.35;;;;;;;;;;4945428;28;20083;-67
2023/04/13 12:34:07;;;;;;;8.85;1.48;;;;;;;;;;4945802;29;20043;-67
2023/04/13 12:36:35;;;;;;;8.23;1.52;;;;;;;;;;4946499;29;20577;-67
2023/04/13 12:39:03;;;;;;;9.02;1.75;;;;;;;;;;4947993;29;20248;-67
2023/04/13 12:41:30;;;;;;;7.18;1.35;;;;;;;;;;4947661;28;20052;-66
2023/04/13 12:43:57;;;;;;;11.57;1.85;;;;;;;;;;4928476;29;20138;-67
2023/04/13 12:46:23;;;;;;;9.50;1.73;;;;;;;;;;4947412;29;20491;-66
2023/04/13 12:48:51;;;;;;;7.97;1.40;;;;;;;;;;4943702;29;20519;-68
2023/04/13 12:51:17;;;;;;;6.15;1.58;;;;;;;;;;4944609;28;20043;-66
2023/04/13 12:53:44;;;;;;;8.88;1.40;;;;;;;;;;4930812;28;20081;-67
2023/04/13 12:56:11;;;;;;;6.75;1.15;;;;;;;;;;4943731;29;20051;-68
2023/04/13 12:58:37;;;;;;;5.30;1.50;;;;;;;;;;4943639;28;20047;-68
2023/04/13 13:01:03;;;;;;;8.23;1.58;;;;;;;;;;4938248;29;20098;-66
2023/04/13 13:03:30;;;;;;;6.25;1.30;;;;;;;;;;4930718;28;20070;-68
2023/04/13 13:05:56;;;;;;;6.93;1.60;;;;;;;;;;4934595;28;20087;-67
2023/04/13 13:08:23;;;;;;;7.75;1.40;;;;;;;;;;4942613;29;20115;-68
2023/04/13 13:10:49;;;;;;;6.95;1.40;;;;;;;;;;4961654;29;20103;-69
2023/04/13 13:13:16;;;;;;;5.93;1.35;;;;;;;;;;4968034;28;20047;-69
2023/04/13 13:15:42;;;;;;;9.23;1.55;;;;;;;;;;4946227;28;20142;-67
2023/04/13 13:18:10;;;;;;;9.02;1.63;;;;;;;;;;4942286;29;20069;-67
2023/04/13 13:20:40;;;;;;;8.13;2.00;;;;;;;;;;4944048;28;20048;-69
2023/04/13 13:23:07;;;;;;;6.45;1.40;;;;;;;;;;4947164;28;20051;-69
2023/04/13 13:25:35;;;;;;;7.03;1.50;;;;;;;;;;4948253;29;20134;-67
2023/04/13 13:28:07;;;;;;;6.75;1.23;;;;;;;;;;4943392;28;20079;-66
2023/04/13 13:30:40;;;;;;;7.00;1.17;;;;;;;;;;4946824;29;20050;-68
2023/04/13 13:33:07;;;;;;;7.93;1.50;;;;;;;;;;4947638;28;20051;-68
2023/04/13 13:35:33;;;;;;;4.15;1.17;;;;;;;;;;4939824;29;20074;-67
2023/04/13 13:38:00;;;;;;;6.63;1.48;;;;;;;;;;4941793;28;20047;-66
2023/04/13 13:40:27;;;;;;;7.78;1.73;;;;;;;;;;4944266;29;20059;-68
2023/04/13 13:42:53;;;;;;;7.63;1.50;;;;;;;;;;4934533;28;20056;-66
2023/04/13 13:45:20;;;;;;;8.85;1.50;;;;;;;;;;4928810;28;20047;-69
2023/04/13 13:47:48;;;;;;;10.18;1.75;;;;;;;;;;4933672;28;20504;-67
2023/04/13 13:50:15;;;;;;;21.58;2.97;;;;;;;;;;4928247;29;20048;-68
2023/04/13 13:52:42;;;;;;;5.88;1.15;;;;;;;;;;4941801;28;20058;-68
2023/04/13 13:55:21;;;;;;;8.13;2.15;;;;;;;;;;4938309;28;20066;-67
2023/04/13 13:57:48;;;;;;;6.65;1.58;;;;;;;;;;4945037;29;20047;-66
2023/04/13 14:00:15;;;;;;;6.55;1.58;;;;;;;;;;4946260;28;20047;-65
2023/04/13 14:02:43;;;;;;;8.15;1.23;;;;;;;;;;4944781;28;20063;-67
2023/04/13 14:05:12;;;;;;;6.03;1.53;;;;;;;;;;4945294;29;20146;-67
2023/04/13 14:07:39;;;;;;;4.55;1.20;;;;;;;;;;4945394;29;20062;-67
2023/04/13 14:10:06;;;;;;;8.88;1.55;;;;;;;;;;4945413;28;20129;-69
2023/04/13 14:12:33;;;;;;;8.60;1.40;;;;;;;;;;4945684;28;20047;-67
2023/04/13 14:14:59;;;;;;;10.48;1.83;;;;;;;;;;4944616;28;20051;-66
2023/04/13 14:17:26;;;;;;;5.63;1.23;;;;;;;;;;4945331;29;20047;-67
2023/04/13 14:19:52;;;;;;;5.72;1.40;;;;;;;;;;4944136;29;20051;-67
2023/04/13 14:22:19;;;;;;;8.00;1.33;;;;;;;;;;4944780;29;20528;-67
2023/04/13 14:24:45;;;;;;;6.03;1.52;;;;;;;;;;4944920;28;20047;-68
2023/04/13 14:27:11;;;;;;;4.97;1.13;;;;;;;;;;4945343;29;20092;-67
2023/04/13 14:29:38;;;;;;;7.20;1.40;;;;;;;;;;4942389;29;20489;-67
2023/04/13 14:32:04;;;;;;;5.97;1.30;;;;;;;;;;4919498;29;20058;-68
2023/04/13 14:34:30;;;;;;;7.10;1.40;;;;;;;;;;4942233;28;20055;-68
2023/04/13 14:36:57;;;;;;;10.43;1.10;;;;;;;;;;4941047;29;20048;-66
2023/04/13 14:39:25;;;;;;;8.93;1.25;;;;;;;;;;4920532;29;20052;-67
2023/04/13 14:41:51;;;;;;;5.45;1.00;;;;;;;;;;4948024;29;20093;-68
2023/04/13 14:44:18;;;;;;;6.63;1.10;;;;;;;;;;4948296;28;20102;-67